Star Helena — V7KJ9 — position and weather

sailwx.info

Track history (hours):
 
Tides and Currents Weather Stations Pressure Air Temp Water Temp Dewpoint Dewpoint Depression Visibility Wind Speed Wind Dir Waves Ship Positions

Star Helena

Last reported at 2016-Jul-21 01:20 UTC. Time now 2016-Jul-25 08:08 UTC.
Position N 01°57' E 102°17'.

Length 229 m; draft 8.1 m.

Type: Cargo ship. MMSI: 538002630.

Date/timePositionNaut miles runAvg speedWind from/ knotsBaromVisibWave heightAir tempDewpointWater temp
2016-Jul-21 01:20N 01°57' E 102°17'1012.3
2016-Jul-21 00:33N 01°53' E 102°26'1212.1
2016-Jul-20 23:33N 01°48' E 102°37'1412.7
2016-Jul-20 22:29N 01°42' E 102°49'6112.4
2016-Jul-20 17:33N 01°10' E 103°41'10 9.6
2016-Jul-20 16:33N 01°12' E 103°51'8 7.6
2016-Jul-20 15:33N 01°17' E 103°57'0 0.1
2016-Jul-20 14:23N 01°17' E 103°57'0 0.0
2016-Jul-20 13:29N 01°17' E 103°57'0 0.0
2016-Jul-20 12:17N 01°17' E 103°57'0 0.0
2016-Jul-20 11:29N 01°17' E 103°57'0 0.1
2016-Jul-20 09:11N 01°17' E 103°57'0 0.2
2016-Jul-20 08:32N 01°17' E 103°57'0 0.0
2016-Jul-20 07:32N 01°17' E 103°57'0 0.0
2016-Jul-20 06:23N 01°17' E 103°57'0 0.1
2016-Jul-20 05:29N 01°17' E 103°57'0 0.0
2016-Jul-20 04:29N 01°17' E 103°57'0 0.1
2016-Jul-20 03:33N 01°17' E 103°57'5 4.9
2016-Jul-20 02:31N 01°16' E 104°02'7 7.2
2016-Jul-20 01:33N 01°17' E 104°09'  
Track history (hours):
 
Tides and Currents Weather Stations Pressure Air Temp Water Temp Dewpoint Dewpoint Depression Visibility Wind Speed Wind Dir Waves Ship Positions

Star Helena

Last reported at 2016-Jul-21 01:20 UTC. Time now 2016-Jul-25 08:08 UTC.
Position N 01°57' E 102°17'.

Length 229 m; draft 8.1 m.

Type: Cargo ship. MMSI: 538002630.

Date/timePositionNaut miles runAvg speedWind from/ knotsBaromVisibWave heightAir tempDewpointWater temp
2016-Jul-21 01:20N 01°57' E 102°17'1012.3
2016-Jul-21 00:33N 01°53' E 102°26'1212.1
2016-Jul-20 23:33N 01°48' E 102°37'1412.7
2016-Jul-20 22:29N 01°42' E 102°49'6112.4
2016-Jul-20 17:33N 01°10' E 103°41'10 9.6
2016-Jul-20 16:33N 01°12' E 103°51'8 7.6
2016-Jul-20 15:33N 01°17' E 103°57'0 0.1
2016-Jul-20 14:23N 01°17' E 103°57'0 0.0
2016-Jul-20 13:29N 01°17' E 103°57'0 0.0
2016-Jul-20 12:17N 01°17' E 103°57'0 0.0
2016-Jul-20 11:29N 01°17' E 103°57'0 0.1
2016-Jul-20 09:11N 01°17' E 103°57'0 0.2
2016-Jul-20 08:32N 01°17' E 103°57'0 0.0
2016-Jul-20 07:32N 01°17' E 103°57'0 0.0
2016-Jul-20 06:23N 01°17' E 103°57'0 0.1
2016-Jul-20 05:29N 01°17' E 103°57'0 0.0
2016-Jul-20 04:29N 01°17' E 103°57'0 0.1
2016-Jul-20 03:33N 01°17' E 103°57'5 4.9
2016-Jul-20 02:31N 01°16' E 104°02'7 7.2
2016-Jul-20 01:33N 01°17' E 104°09'  

Dump ship's entire track history